ADDS METAR Data INFO
IDs: Format: Raw Decoded Include TAF

Data at: 2112 UTC 22 Oct 2017

KVIS 222056Z AUTO 34005KT 10SM CLR 22/06 A3028 RMK AO2 SLP263 T02220061 58025
KVIS 221956Z AUTO VRB03KT 10SM CLR 21/07 A3032 RMK AO2 SLP274 T02060067
KVIS 221856Z AUTO VRB03KT 5SM HZ CLR 19/07 A3034 RMK AO2 SLP283 T01940072
KVIS 221756Z AUTO 25003KT 10SM CLR 17/08 A3036 RMK AO2 SLP289 T01670078 10167 20056 51008
KVIS 221656Z AUTO 00000KT 10SM CLR 14/08 A3036 RMK AO2 SLP289 T01440078
KVIS 221556Z AUTO 17003KT 8SM CLR 12/07 A3035 RMK AO2 SLP287 T01170072
KVIS 221538Z AUTO 15003KT 3SM HZ CLR 11/07 A3035 RMK AO2
KVIS 221528Z AUTO 12004KT 1 1/4SM HZ CLR 11/08 A3035 RMK AO2 VIS 1/2V5
KVIS 221525Z AUTO 12003KT 3/4SM HZ CLR 11/08 A3035 RMK AO2
KVIS 221520Z AUTO 00000KT 1/4SM FG CLR 10/08 A3034 RMK AO2
KVIS 221512Z AUTO 09003KT 1/2SM FG CLR 09/07 A3034 RMK AO2
KVIS 221504Z AUTO 10003KT 3/4SM BR CLR 09/07 A3034 RMK AO2
KVIS 221456Z AUTO 12005KT 1 1/4SM BR CLR 08/07 A3033 RMK AO2 VIS 1/2V4 SLP281 T00830072 53006
KVIS 221448Z AUTO 12003KT 1 1/2SM BR CLR 07/06 A3033 RMK AO2
KVIS 221434Z AUTO 14003KT 4SM BR CLR 07/06 A3033 RMK AO2
KVIS 221431Z AUTO 14003KT 1 1/4SM BR CLR 06/05 A3033 RMK AO2
KVIS 221426Z AUTO 13004KT 3/4SM BR CLR 06/05 A3033 RMK AO2
KVIS 221417Z AUTO 13005KT 1/2SM FG CLR 07/05 A3033 RMK AO2
KVIS 221408Z AUTO 12003KT 3/4SM BR CLR 07/06 A3032 RMK AO2
KVIS 221405Z AUTO 12004KT 1 1/2SM BR CLR 07/06 A3032 RMK AO2 TSNO
KVIS 221356Z AUTO 00000KT 7SM CLR 07/06 A3032 RMK AO2 SLP278 T00670056
KVIS 221256Z AUTO 00000KT 4SM BR CLR 07/06 A3032 RMK AO2 SLP277 T00720061
KVIS 221229Z AUTO 00000KT 3SM BR CLR 07/06 A3031 RMK AO2
KVIS 221221Z AUTO 00000KT 1 3/4SM BR CLR 08/06 A3031 RMK AO2 VIS 1 1/4V5
KVIS 221156Z AUTO 00000KT 10SM CLR 08/06 A3032 RMK AO2 SLP275 T00830061 10122 20083 51004
KVIS 221056Z AUTO 00000KT 10SM CLR 09/07 A3031 RMK AO2 SLP273 T00890067
KVIS 220956Z AUTO 00000KT 10SM CLR 09/07 A3031 RMK AO2 SLP273 T00890067
KVIS 220945Z AUTO 00000KT 3SM HZ CLR 09/07 A3031 RMK AO2
KVIS 220914Z AUTO 00000KT 1 1/4SM HZ CLR 11/07 A3031 RMK AO2
KVIS 220856Z AUTO 00000KT 2 1/2SM HZ CLR 10/07 A3030 RMK AO2 SLP271 T01000072 51002
KVIS 220847Z AUTO 09003KT 1 1/4SM HZ CLR 11/07 A3030 RMK AO2
KVIS 220829Z AUTO 09004KT 2SM HZ CLR 11/07 A3030 RMK AO2 VIS 1 1/2V3
KVIS 220808Z AUTO 10005KT 1 3/4SM HZ CLR 11/07 A3030 RMK AO2
KVIS 220756Z AUTO 08005KT 6SM HZ CLR 11/08 A3030 RMK AO2 SLP270 T01110078 402000050
KVIS 220747Z AUTO 10006KT 2 1/2SM HZ CLR 11/08 A3031 RMK AO2
KVIS 220729Z AUTO 09005KT 1 1/4SM HZ CLR 11/08 A3030 RMK AO2 TSNO
KVIS 220716Z AUTO 08005KT 3/4SM HZ CLR 11/08 A3031 RMK AO2
KVIS 220656Z AUTO 06003KT 1/4SM HZ CLR 11/08 A3031 RMK AO2 SLP271 T01110083
KVIS 220636Z AUTO 09004KT 1SM BR CLR 10/08 A3031 RMK AO2
KVIS 220629Z AUTO 09003KT 2SM BR CLR 10/08 A3031 RMK AO2
KVIS 220613Z AUTO 00000KT 1 3/4SM HZ CLR 12/09 A3030 RMK AO2
KVIS 220556Z AUTO 00000KT 10SM CLR 12/09 A3030 RMK AO2 SLP269 T01220089 10200 20111 53016
KVIS 220456Z AUTO 00000KT 10SM CLR 12/08 A3028 RMK AO2 SLP264 T01170078
KVIS 220356Z AUTO 00000KT 10SM CLR 13/09 A3027 RMK AO2 SLP259 T01330094
KVIS 220311Z AUTO 00000KT 3SM HZ CLR 14/08 A3026 RMK AO2
KVIS 220308Z AUTO 00000KT 1 1/4SM HZ CLR 14/08 A3026 RMK AO2
KVIS 220306Z AUTO 00000KT 3/4SM HZ CLR 14/08 A3026 RMK AO2
KVIS 220256Z AUTO 00000KT 1/4SM HZ CLR 15/09 A3025 RMK AO2 VIS M1/4V2 SLP254 T01500094 51015
KVIS 220253Z AUTO 00000KT 1/2SM HZ CLR 15/09 A3025 RMK AO2 VIS M1/4V5
KVIS 220251Z AUTO 00000KT 1SM HZ CLR 16/09 A3025 RMK AO2 VIS 1/4V5
KVIS 220238Z AUTO 32003KT 10SM CLR 16/09 A3025 RMK AO2
KVIS 220228Z AUTO 00000KT 2SM HZ CLR 14/09 A3025 RMK AO2
KVIS 220156Z AUTO 00000KT 3SM HZ CLR 16/09 A3024 RMK AO2 SLP251 T01610089
KVIS 220056Z AUTO 34005KT 10SM CLR 18/08 A3022 RMK AO2 SLP244 T01830083
KVIS 212356Z AUTO 33004KT 9SM CLR 19/08 A3021 RMK AO2 SLP238 T01940078 10200 20139 55002
KVIS 212256Z AUTO 00000KT 10SM CLR 19/08 A3020 RMK AO2 SLP236 T01940078
KVIS 212156Z AUTO 26004KT 10SM CLR 19/08 A3021 RMK AO2 SLP239 T01890078
KVIS 212056Z AUTO 00000KT 10SM CLR 18/08 A3021 RMK AO2 SLP240 T01780078 56015
KVIS 211956Z AUTO 22005KT 10SM CLR 17/08 A3023 RMK AO2 SLP244 T01720078
KVIS 211856Z AUTO 12006KT 10SM CLR 16/08 A3023 RMK AO2 SLP247 T01610078
KVIS 211756Z AUTO 00000KT 10SM CLR 13/08 A3026 RMK AO2 SLP256 T01330078 10139 20050 50009
KVIS 211656Z AUTO VRB04KT 10SM FEW011 12/08 A3027 RMK AO2 SLP259 T01170078
KVIS 211556Z AUTO 00000KT 10SM CLR 09/07 A3025 RMK AO2 SLP254 T00890072
KVIS 211456Z AUTO 11004KT 8SM CLR 07/06 A3023 RMK AO2 SLP246 T00670056 51020
KVIS 211356Z AUTO 14003KT 10SM CLR 06/06 A3021 RMK AO2 SLP241 T00610056
KVIS 211256Z AUTO 15003KT 10SM CLR 06/05 A3019 RMK AO2 SLP233 T00610050
KVIS 211156Z AUTO 20004KT 10SM CLR 07/06 A3017 RMK AO2 SLP225 70009 T00670056 10106 20067 53007
KVIS 211056Z AUTO 20004KT 10SM CLR 07/06 A3015 RMK AO2 SLP219 T00670056
KVIS 210956Z AUTO 17004KT 10SM CLR 07/06 A3015 RMK AO2 SLP219 T00720056